Weather at Erin Aero Airport

Public forecast

Using degrees Fahrenheit for public forecast. Weather courtesy of forecast.io.

Closest aviation weather report (METAR) to Erin Aero Airport

Closest report is Waukesha County Airport, 13.6 nm (25.2 km) SSE. Retrieved 2021/06/23 02:35 UTC (25 minutes ago):

KUES 230235Z AUTO 13003KT 10SM BKN070 OVC090 15/09 A2997 RMK AO2

Closest aviation forecast (TAF) to Erin Aero Airport

Closest forecast is Waukesha County Airport, 13.6 nm (25.2 km) SSE. Retrieved 2021-06-23 00:33 UTC (2 hours ago):

TAF KUES 222330Z 2300/2324 VRB05KT P6SM BKN070 TEMPO 2300/2304 21005KT SCT070 FM230500 17005KT P6SM VCSH BKN070 FM231200 19007KT P6SM VCSH BKN040 TEMPO 2313/2316 5SM -SHRA BKN030 FM231700 21011G22KT P6SM BKN050